Time;durP1;ratioP1;P1;durP2;ratioP2;P2;SDS_P1;SDS_P2;PMS_P1;PMS_P2;Temp;Humidity;BMP_temperature;BMP_pressure;BME280_temperature;BME280_humidity;BME280_pressure;Samples;Min_cycle;Max_cycle;Signal;HPM_P1;HPM_P2
2022/07/12 00:01:38;;;;;;;6.60;1.27;;;;;;;-146.64;100.00;114127.28;5108600;28;20111;-71
2022/07/12 00:04:03;;;;;;;1.67;1.50;;;;;;;-146.64;100.00;112526.16;5089317;28;20042;-71
2022/07/12 00:06:29;;;;;;;2.20;1.67;;;;;;;-146.64;100.00;113059.81;5091338;28;20043;-72
2022/07/12 00:08:54;;;;;;;3.27;1.40;;;;;;;-146.64;100.00;113326.63;5091404;28;20535;-71
2022/07/12 00:11:19;;;;;;;1.40;1.30;;;;;;;-146.64;100.00;113326.63;5108121;28;20043;-71
2022/07/12 00:13:45;;;;;;;1.60;1.50;;;;;;;-146.64;100.00;113326.63;5092185;28;20146;-70
2022/07/12 00:16:11;;;;;;;2.20;1.60;;;;;;;-146.64;100.00;114661.13;5082239;28;20032;-71
2022/07/12 00:18:36;;;;;;;1.50;1.40;;;;;;;-146.64;100.00;115462.00;5086631;28;20081;-71
2022/07/12 00:21:01;;;;;;;1.67;1.53;;;;;;;-146.64;100.00;115996.03;5090314;28;20028;-72
2022/07/12 00:23:27;;;;;;;1.73;1.23;;;;;;;-146.64;100.00;116530.09;5091328;28;20035;-70
2022/07/12 00:25:52;;;;;;;3.33;1.10;;;;;;;-146.64;100.00;116530.09;5082673;28;20035;-71
2022/07/12 00:28:17;;;;;;;2.33;1.60;;;;;;;-146.64;100.00;114928.06;5102054;28;20035;-71
2022/07/12 00:30:43;;;;;;;1.70;1.60;;;;;;;-146.64;100.00;114928.06;5090730;28;20102;-71
2022/07/12 00:33:08;;;;;;;1.60;1.50;;;;;;;-146.64;100.00;116530.09;5100921;28;20104;-72
2022/07/12 00:35:34;;;;;;;1.47;1.33;;;;;;;-146.64;100.00;115462.00;5107358;28;20375;-70
2022/07/12 00:37:59;;;;;;;3.93;1.47;;;;;;;-146.64;100.00;117064.25;5092591;28;20526;-70
2022/07/12 00:40:24;;;;;;;2.70;1.73;;;;;;;-146.64;100.00;117331.34;5091003;28;20089;-72
2022/07/12 00:42:50;;;;;;;2.37;2.13;;;;;;;-146.64;100.00;117865.63;5092003;28;20031;-71
2022/07/12 00:45:15;;;;;;;2.43;1.70;;;;;;;-146.64;100.00;117598.47;5107876;28;20019;-73
2022/07/12 00:47:46;;;;;;;2.67;2.03;;;;;;;-146.64;100.00;117331.34;5091682;28;20055;-71
2022/07/12 00:50:18;;;;;;;3.30;1.80;;;;;;;-146.64;100.00;117865.63;5090343;28;20452;-70
2022/07/12 00:52:45;;;;;;;4.07;2.03;;;;;;;-146.64;100.00;118132.78;5081518;28;20032;-70
2022/07/12 00:55:11;;;;;;;2.45;1.70;;;;;;;-146.64;100.00;117064.25;5092888;28;20034;-74
2022/07/12 00:57:38;;;;;;;1.90;1.70;;;;;;;-146.64;100.00;118132.78;5075178;28;20028;-71
2022/07/12 01:00:06;;;;;;;2.53;1.70;;;;;;;-146.64;100.00;118399.94;5064612;28;20043;-71
2022/07/12 01:02:31;;;;;;;2.03;1.70;;;;;;;-146.64;100.00;117598.47;5074870;28;20430;-71
2022/07/12 01:04:58;;;;;;;7.03;1.80;;;;;;;-146.64;100.00;117865.63;5091370;28;20042;-71
2022/07/12 01:07:24;;;;;;;3.33;1.98;;;;;;;-146.64;100.00;118399.94;5075697;28;20031;-71
2022/07/12 01:09:50;;;;;;;1.88;1.75;;;;;;;-146.64;100.00;118399.94;5092005;28;20075;-70
2022/07/12 01:12:16;;;;;;;3.55;1.80;;;;;;;-146.64;100.00;117865.63;5078184;28;20120;-71
2022/07/12 01:14:44;;;;;;;1.67;1.57;;;;;;;-146.64;100.00;118399.94;5076546;28;20067;-72
2022/07/12 01:17:09;;;;;;;3.30;1.85;;;;;;;-146.64;100.00;117865.63;5112768;28;20031;-72
2022/07/12 01:19:37;;;;;;;4.00;2.00;;;;;;;-146.64;100.00;118132.78;5109557;28;20028;-70
2022/07/12 01:22:07;;;;;;;5.75;2.45;;;;;;;-146.64;100.00;117865.63;5094241;28;20024;-70
2022/07/12 01:24:32;;;;;;;4.88;2.35;;;;;;;-146.64;100.00;118399.94;5092192;28;20140;-72
2022/07/12 01:26:58;;;;;;;6.03;2.00;;;;;;;-146.64;100.00;118399.94;5090981;28;20059;-71
2022/07/12 01:29:23;;;;;;;2.17;1.97;;;;;;;-146.64;100.00;118132.78;5110695;28;20020;-71
2022/07/12 01:31:49;;;;;;;2.83;1.83;;;;;;;-146.64;100.00;118132.78;5084068;28;20028;-72
2022/07/12 01:34:14;;;;;;;4.93;2.30;;;;;;;-146.64;100.00;118399.94;5101539;28;20046;-73
2022/07/12 01:36:40;;;;;;;3.27;1.73;;;;;;;-146.64;100.00;118399.94;5080477;28;20032;-72
2022/07/12 01:39:06;;;;;;;3.28;2.08;;;;;;;-146.64;100.00;118402.03;5094755;28;20023;-70
2022/07/12 01:41:32;;;;;;;2.13;1.83;;;;;;;-146.64;100.00;118402.03;5110142;28;20036;-71
2022/07/12 01:43:57;;;;;;;4.75;2.17;;;;;;;-146.64;100.00;118399.94;5091220;28;20051;-71
2022/07/12 01:46:23;;;;;;;4.60;1.53;;;;;;;-146.64;100.00;118132.78;5111032;28;20475;-70
2022/07/12 01:48:48;;;;;;;2.07;1.83;;;;;;;-146.64;100.00;118402.03;5093299;28;20066;-72
2022/07/12 01:51:14;;;;;;;3.00;1.83;;;;;;;-146.64;100.00;118402.03;5085072;28;20162;-71
2022/07/12 01:53:39;;;;;;;2.93;1.80;;;;;;;-146.64;100.00;118132.78;5111717;28;20028;-71
2022/07/12 01:56:04;;;;;;;2.30;2.05;;;;;;;-146.64;100.00;118402.03;5088217;28;20060;-70
2022/07/12 01:58:30;;;;;;;4.80;2.00;;;;;;;-146.64;100.00;118402.03;5074062;28;20035;-71
2022/07/12 02:00:56;;;;;;;2.77;2.07;;;;;;;-146.64;100.00;118402.03;5088616;28;20032;-70
2022/07/12 02:03:22;;;;;;;7.00;2.22;;;;;;;-146.64;100.00;118402.03;5111337;28;20027;-72
2022/07/12 02:05:47;;;;;;;2.63;2.10;;;;;;;-146.64;100.00;118132.78;5109427;28;20095;-71
2022/07/12 02:08:13;;;;;;;4.23;2.63;;;;;;;-146.64;100.00;118132.78;5111345;28;20069;-71
2022/07/12 02:10:39;;;;;;;4.53;2.37;;;;;;;-146.64;100.00;118399.94;5112520;28;20436;-71
2022/07/12 02:13:05;;;;;;;2.78;2.38;;;;;;;-146.64;100.00;118402.03;5089697;28;20300;-71
2022/07/12 02:15:33;;;;;;;3.10;2.00;;;;;;;-146.64;100.00;118402.03;5098643;28;20506;-71
2022/07/12 02:17:59;;;;;;;4.97;2.45;;;;;;;-146.64;100.00;118402.03;5062156;28;20031;-70
2022/07/12 02:20:24;;;;;;;3.37;2.20;;;;;;;-146.64;100.00;118402.03;5109995;28;20085;-71
2022/07/12 02:22:50;;;;;;;2.43;1.70;;;;;;;-146.64;100.00;118402.03;5093610;28;20103;-70
2022/07/12 02:25:15;;;;;;;2.77;1.90;;;;;;;-146.64;100.00;118402.03;5075043;28;20127;-72
2022/07/12 02:27:41;;;;;;;5.63;2.43;;;;;;;-146.64;100.00;118402.03;5111509;28;20530;-70
2022/07/12 02:30:08;;;;;;;4.47;1.83;;;;;;;-146.64;100.00;118402.03;5091050;28;20032;-71
2022/07/12 02:32:33;;;;;;;2.85;2.08;;;;;;;-146.64;100.00;118399.94;5092585;28;20035;-70
2022/07/12 02:34:58;;;;;;;10.43;2.30;;;;;;;-146.64;100.00;118402.03;5074449;28;20042;-70
2022/07/12 02:37:24;;;;;;;2.30;2.10;;;;;;;-146.64;100.00;118402.03;5092212;28;20040;-71
2022/07/12 02:39:50;;;;;;;2.50;2.30;;;;;;;-146.64;100.00;118402.03;5089135;28;20036;-71
2022/07/12 02:42:15;;;;;;;3.30;2.33;;;;;;;-146.64;100.00;118402.03;5088064;28;20415;-71
2022/07/12 02:44:40;;;;;;;3.27;2.73;;;;;;;-146.64;100.00;118402.03;5092084;28;20016;-70
2022/07/12 02:47:06;;;;;;;4.90;2.40;;;;;;;-146.64;100.00;118402.03;5092580;28;20035;-70
2022/07/12 02:49:31;;;;;;;3.17;2.73;;;;;;;-146.64;100.00;118402.03;5091305;28;20038;-71
2022/07/12 02:51:56;;;;;;;2.37;2.17;;;;;;;-146.64;100.00;118402.03;5109980;28;20111;-72
2022/07/12 02:54:22;;;;;;;4.70;2.57;;;;;;;-146.64;100.00;118402.03;5092682;28;20019;-74
2022/07/12 02:56:47;;;;;;;6.57;2.70;;;;;;;-146.64;100.00;118402.03;5078220;28;20387;-71
2022/07/12 02:59:12;;;;;;;7.77;2.70;;;;;;;-146.64;100.00;118402.03;5091529;28;20032;-73
2022/07/12 03:01:38;;;;;;;3.77;2.17;;;;;;;-146.64;100.00;118402.03;5091758;28;20031;-71
2022/07/12 03:04:03;;;;;;;5.13;3.00;;;;;;;-146.64;100.00;118402.03;5092082;28;20055;-74
2022/07/12 03:06:29;;;;;;;4.53;3.50;;;;;;;-146.64;100.00;118402.03;5109772;28;20055;-71
2022/07/12 03:08:54;;;;;;;6.20;3.40;;;;;;;-146.64;100.00;118402.03;5110504;28;20044;-71
2022/07/12 03:11:19;;;;;;;4.33;2.63;;;;;;;-146.64;100.00;118402.03;5108042;28;20497;-72
2022/07/12 03:13:45;;;;;;;5.07;2.53;;;;;;;-146.64;100.00;118402.03;5091625;28;20024;-71
2022/07/12 03:16:11;;;;;;;3.90;2.23;;;;;;;-146.64;100.00;118402.03;5070879;28;20034;-70
2022/07/12 03:18:39;;;;;;;2.42;2.22;;;;;;;-146.64;100.00;118402.03;5111571;28;20028;-71
2022/07/12 03:21:05;;;;;;;3.33;2.53;;;;;;;-146.64;100.00;118402.03;5072999;28;20055;-71
2022/07/12 03:23:30;;;;;;;6.33;3.00;;;;;;;-146.64;100.00;118402.03;5090069;28;20028;-71
2022/07/12 03:25:55;;;;;;;2.97;2.50;;;;;;;-146.64;100.00;118402.03;5072566;28;20110;-71
2022/07/12 03:28:21;;;;;;;3.00;2.50;;;;;;;-146.64;100.00;118402.03;5092714;28;20019;-73
2022/07/12 03:30:46;;;;;;;2.50;2.30;;;;;;;-146.64;100.00;118402.03;5068707;28;20031;-72
2022/07/12 03:33:11;;;;;;;2.40;2.20;;;;;;;-146.64;100.00;118402.03;5093321;28;20429;-72
2022/07/12 03:35:37;;;;;;;3.87;2.50;;;;;;;-146.64;100.00;118402.03;5109389;28;20020;-71
2022/07/12 03:38:02;;;;;;;2.53;2.20;;;;;;;-146.64;100.00;118402.03;5092658;28;20032;-71
2022/07/12 03:40:31;;;;;;;3.97;2.50;;;;;;;-146.64;100.00;118402.03;5108654;28;20094;-70
2022/07/12 03:42:56;;;;;;;2.45;2.22;;;;;;;-146.64;100.00;118402.03;5092961;28;20028;-69
2022/07/12 03:45:22;;;;;;;3.10;2.80;;;;;;;-146.64;100.00;118402.03;5086328;28;20102;-71
2022/07/12 03:47:48;;;;;;;4.20;2.40;;;;;;;-146.64;100.00;118402.03;5087742;28;20050;-71
2022/07/12 03:50:13;;;;;;;3.05;2.55;;;;;;;-146.64;100.00;118402.03;5085793;28;20019;-71
2022/07/12 03:52:40;;;;;;;7.47;3.00;;;;;;;-146.64;100.00;118402.03;5070454;28;20593;-71
2022/07/12 03:55:06;;;;;;;6.88;3.03;;;;;;;-146.64;100.00;118402.03;5066432;28;20036;-72
2022/07/12 03:57:32;;;;;;;6.05;2.72;;;;;;;-146.64;100.00;118402.03;5091495;28;20036;-71
2022/07/12 03:59:57;;;;;;;4.43;2.97;;;;;;;-146.64;100.00;118402.03;5108648;28;20031;-71
2022/07/12 04:02:23;;;;;;;3.87;3.00;;;;;;;-146.64;100.00;118402.03;5089285;28;20039;-71
2022/07/12 04:04:49;;;;;;;6.57;2.57;;;;;;;-146.64;100.00;118402.03;5107990;28;20395;-71
2022/07/12 04:07:14;;;;;;;4.37;3.20;;;;;;;-146.64;100.00;118402.03;5090729;28;20046;-72
2022/07/12 04:09:39;;;;;;;4.80;3.00;;;;;;;-146.64;100.00;118402.03;5090149;28;20015;-71
2022/07/12 04:12:05;;;;;;;3.13;2.70;;;;;;;-146.64;100.00;118402.03;5108298;28;20027;-72
2022/07/12 04:14:30;;;;;;;3.73;2.73;;;;;;;-146.64;100.00;118402.03;5072834;28;20706;-71
2022/07/12 04:16:56;;;;;;;7.47;3.47;;;;;;;-146.64;100.00;118402.03;5091078;28;20115;-72
2022/07/12 04:19:27;;;;;;;2.60;2.40;;;;;;;-146.64;100.00;118402.03;5072751;28;20134;-72
2022/07/12 04:21:55;;;;;;;3.97;2.95;;;;;;;-146.64;100.00;118402.03;5107792;28;20016;-75
2022/07/12 04:24:21;;;;;;;4.93;3.10;;;;;;;-146.64;100.00;118402.03;5104040;28;20068;-72
2022/07/12 04:26:46;;;;;;;4.07;3.53;;;;;;;-146.64;100.00;118402.03;5073929;28;20099;-71
2022/07/12 04:29:12;;;;;;;3.97;3.57;;;;;;;-146.64;100.00;118402.03;5093044;28;20171;-71
2022/07/12 04:31:37;;;;;;;9.43;4.07;;;;;;;-146.64;100.00;118402.03;5094280;28;20035;-71
2022/07/12 04:34:02;;;;;;;5.50;4.40;;;;;;;-146.64;100.00;118402.03;5112356;28;20467;-71
2022/07/12 04:36:28;;;;;;;4.87;3.60;;;;;;;-146.64;100.00;118402.03;5111010;28;20104;-70
2022/07/12 04:38:53;;;;;;;8.47;4.37;;;;;;;-146.64;100.00;118402.03;5078361;28;20136;-70
2022/07/12 04:41:18;;;;;;;5.33;4.07;;;;;;;-146.64;100.00;118402.03;5107417;28;20035;-72
2022/07/12 04:43:44;;;;;;;5.87;3.90;;;;;;;-146.64;100.00;118402.03;5093634;28;20187;-71
2022/07/12 04:46:11;;;;;;;4.63;4.23;;;;;;;-146.64;100.00;118402.03;5091594;28;20023;-69
2022/07/12 04:48:37;;;;;;;5.68;4.82;;;;;;;-146.64;100.00;118402.03;5111984;28;20032;-71
2022/07/12 04:51:03;;;;;;;5.78;4.78;;;;;;;-146.64;100.00;118402.03;5090281;28;20135;-71
2022/07/12 04:53:29;;;;;;;9.93;4.93;;;;;;;-146.64;100.00;118132.78;5092813;28;20110;-70
2022/07/12 04:55:55;;;;;;;11.03;4.50;;;;;;;-146.64;100.00;117598.47;5076171;28;20053;-72
2022/07/12 04:58:21;;;;;;;6.72;5.68;;;;;;;-146.64;100.00;117598.47;5090839;28;20026;-71
2022/07/12 05:00:46;;;;;;;6.77;5.60;;;;;;;-146.64;100.00;117331.34;5102591;28;20483;-71
2022/07/12 05:03:11;;;;;;;14.30;6.07;;;;;;;-146.64;100.00;116530.09;5085498;28;20286;-73
2022/07/12 05:05:37;;;;;;;12.97;5.97;;;;;;;-146.64;100.00;116263.06;5091624;28;20035;-70
2022/07/12 05:08:04;;;;;;;6.63;5.93;;;;;;;-146.64;100.00;115996.03;5109404;28;20118;-73
2022/07/12 05:10:29;;;;;;;7.93;5.97;;;;;;;-146.64;100.00;115195.03;5105192;28;20027;-71
2022/07/12 05:12:55;;;;;;;7.13;5.80;;;;;;;-146.64;100.00;114394.19;5078293;28;20032;-70
2022/07/12 05:15:20;;;;;;;7.90;6.83;;;;;;;-146.64;100.00;113593.50;5078628;28;20088;-70
2022/07/12 05:17:45;;;;;;;10.30;7.03;;;;;;;-146.64;100.00;111725.84;5106577;28;20106;-70
2022/07/12 05:20:11;;;;;;;7.67;6.93;;;;;;;-146.64;100.00;110392.34;5078124;28;20063;-70
2022/07/12 05:22:36;;;;;;;9.67;6.40;;;;;;;-146.64;100.00;108792.72;5078478;28;20073;-72
2022/07/12 05:25:02;;;;;;;8.53;6.67;;;;;;;-146.64;100.00;103198.94;5091283;28;20028;-70
2022/07/12 05:27:27;;;;;;;8.90;6.50;;;;;;;-146.64;100.00;90707.41;5090044;28;20643;-71
2022/07/12 05:29:53;;;;;;;10.23;6.10;;;;;;;-146.64;100.00;63730.81;5075166;28;20080;-72
2022/07/12 05:32:18;;;;;;;13.17;6.90;;;;;;;-146.64;100.00;31829.81;5111212;28;20111;-71
2022/07/12 05:34:43;;;;;;;12.40;6.93;;;;;;;-146.64;100.00;31341.63;5081558;28;20114;-69
2022/07/12 05:37:09;;;;;;;6.57;5.87;;;;;;;-146.64;100.00;32928.94;5105870;28;20054;-70
2022/07/12 05:39:34;;;;;;;8.17;4.90;;;;;;;-146.64;100.00;33864.88;5102218;28;20040;-70
2022/07/12 05:41:59;;;;;;;6.30;5.57;;;;;;;-146.64;100.00;33752.47;5089756;28;20035;-70
2022/07/12 05:44:25;;;;;;;5.57;4.90;;;;;;;-146.64;100.00;33868.97;5110886;28;20027;-70
2022/07/12 05:46:51;;;;;;;7.47;5.00;;;;;;;-146.64;100.00;33014.75;5112759;28;20106;-70
2022/07/12 05:49:17;;;;;;;7.70;5.13;;;;;;;-146.64;100.00;33243.63;5104836;28;20055;-71
2022/07/12 05:54:27;;;;;;;7.63;4.25;;;;;;;-146.64;100.00;34353.38;5097110;28;20046;-70
2022/07/12 05:56:52;;;;;;;11.57;4.93;;;;;;;-146.64;100.00;33729.97;5094887;28;20031;-71
2022/07/12 05:59:19;;;;;;;11.93;5.10;;;;;;;-146.64;100.00;33860.78;5094481;28;20032;-71
2022/07/12 06:01:44;;;;;;;7.30;5.03;;;;;;;-146.64;100.00;32765.47;5093443;28;20024;-69
2022/07/12 06:04:09;;;;;;;10.17;5.70;;;;;;;-146.64;100.00;32773.66;5094320;28;20165;-70
2022/07/12 06:06:35;;;;;;;6.63;5.23;;;;;;;-146.64;100.00;33229.31;5081052;28;20048;-70
2022/07/12 06:09:00;;;;;;;10.23;5.57;;;;;;;-146.64;100.00;32360.94;5079901;28;20272;-69
2022/07/12 06:11:27;;;;;;;17.15;6.30;;;;;;;-146.64;100.00;31319.19;5108858;28;20114;-69
2022/07/12 06:13:52;;;;;;;;;;;;;;;-146.64;100.00;32808.38;5092642;28;20487;-70
2022/07/12 06:16:17;;;;;;;9.63;6.37;;;;;;;-146.64;100.00;31439.69;5110814;28;19911;-70
2022/07/12 06:18:42;;;;;;;9.00;6.50;;;;;;;-146.64;100.00;33721.81;5104107;28;20280;-69
2022/07/12 06:21:08;;;;;;;12.37;6.27;;;;;;;-146.64;100.00;33844.44;5104475;28;20023;-70
2022/07/12 06:23:33;;;;;;;7.17;6.27;;;;;;;-146.64;100.00;34277.72;5100442;28;20039;-70
2022/07/12 06:25:58;;;;;;;8.17;5.67;;;;;;;-146.64;100.00;34173.50;5086182;28;20058;-70
2022/07/12 06:28:24;;;;;;;6.97;6.10;;;;;;;-146.64;100.00;33801.50;5071797;28;20042;-70
2022/07/12 06:30:49;;;;;;;11.80;5.57;;;;;;;-146.64;100.00;32961.63;5107110;28;20039;-70
2022/07/12 06:33:15;;;;;;;9.25;6.53;;;;;;;-146.64;100.00;33071.97;5089573;28;20043;-70
2022/07/12 06:35:40;;;;;;;9.33;6.23;;;;;;;-146.64;100.00;33082.19;5078933;28;20080;-70
2022/07/12 06:38:05;;;;;;;13.27;6.57;;;;;;;-146.64;100.00;33991.59;5065396;28;20036;-70
2022/07/12 06:40:31;;;;;;;8.97;6.10;;;;;;;-146.64;100.00;33946.63;5100555;28;20024;-70
2022/07/12 06:42:56;;;;;;;17.47;6.83;;;;;;;-146.64;100.00;33705.47;5079822;28;20035;-71
2022/07/12 06:45:22;;;;;;;12.98;7.03;;;;;;;-146.64;100.00;33819.91;5082437;28;20055;-71
2022/07/12 06:47:47;;;;;;;14.20;9.73;;;;;;;-146.64;100.00;34596.59;5084730;28;20042;-71
2022/07/12 06:50:13;;;;;;;9.97;8.97;;;;;;;-146.64;100.00;34572.06;5085625;28;20059;-70
2022/07/12 06:52:38;;;;;;;12.25;7.55;;;;;;;-146.64;100.00;35099.50;5087324;28;20062;-70
2022/07/12 06:55:04;;;;;;;12.15;8.35;;;;;;;-146.64;100.00;35030.00;5075440;28;20028;-69
2022/07/12 06:57:30;;;;;;;8.25;7.13;;;;;;;-146.64;100.00;35115.84;5072987;28;20525;-69
2022/07/12 06:59:58;;;;;;;10.63;8.03;;;;;;;-146.64;100.00;35218.06;5100865;28;20023;-70
2022/07/12 07:02:23;;;;;;;7.93;7.13;;;;;;;-146.64;100.00;35213.97;5103807;28;20139;-70
2022/07/12 07:04:49;;;;;;;12.43;7.53;;;;;;;-146.64;100.00;35275.31;5080161;28;20116;-70
2022/07/12 07:07:14;;;;;;;9.13;7.37;;;;;;;-146.64;100.00;34702.91;5102678;28;20042;-70
2022/07/12 07:09:39;;;;;;;8.57;7.23;;;;;;;-146.64;100.00;34846.00;5100474;28;20229;-70
2022/07/12 07:12:05;;;;;;;7.10;6.30;;;;;;;-146.64;100.00;35021.81;5076489;28;20035;-70
2022/07/12 07:14:30;;;;;;;8.80;6.35;;;;;;;-146.64;100.00;35042.25;5081592;28;20280;-70
2022/07/12 07:16:56;;;;;;;11.90;6.25;;;;;;;-146.64;99.65;35169.00;5105660;28;20035;-71
2022/07/12 07:19:24;;;;;;;7.30;5.47;;;;;;;-146.64;100.00;34952.31;5082460;28;20363;-72
2022/07/12 07:21:50;;;;;;;6.53;5.90;;;;;;;-146.64;97.70;35222.16;5102385;28;20631;-70
2022/07/12 07:24:15;;;;;;;5.43;4.93;;;;;;;-146.64;95.80;35246.69;5081323;28;20031;-70
2022/07/12 07:26:40;;;;;;;5.97;5.30;;;;;;;-146.64;97.59;35332.56;5085381;28;20047;-70
2022/07/12 07:32:04;;;;;;;6.05;5.20;;;;;;;-146.64;96.79;35438.88;5043717;28;20165;-70
2022/07/12 07:34:29;;;;;;;11.20;5.40;;;;;;;-146.64;96.13;35299.84;5080700;28;20126;-71
2022/07/12 07:36:54;;;;;;;8.00;5.33;;;;;;;-146.64;91.88;35193.53;5097667;28;20449;-69
2022/07/12 07:39:20;;;;;;;8.30;4.90;;;;;;;-146.64;93.78;35332.56;5102652;28;20088;-69
2022/07/12 07:41:45;;;;;;;8.60;4.73;;;;;;;-146.64;94.07;35348.91;5104457;28;20458;-70
2022/07/12 07:44:10;;;;;;;5.93;4.47;;;;;;;-146.64;92.21;35164.91;5104131;28;20024;-70
2022/07/12 07:46:36;;;;;;;5.90;4.63;;;;;;;-146.64;93.29;35252.84;5102032;28;20387;-71
2022/07/12 07:49:01;;;;;;;16.73;4.70;;;;;;;-146.64;92.42;35189.44;5095583;28;20051;-70
2022/07/12 07:51:26;;;;;;;8.03;4.67;;;;;;;-146.64;90.06;35485.91;5087704;28;20043;-70
2022/07/12 07:53:52;;;;;;;6.73;4.70;;;;;;;-146.64;92.71;35430.69;5104198;28;20016;-71
2022/07/12 07:56:17;;;;;;;17.83;5.03;;;;;;;-146.64;94.15;35508.41;5095147;28;20028;-70
2022/07/12 07:58:42;;;;;;;9.07;3.77;;;;;;;-146.64;95.59;35651.53;5103439;28;20023;-72
2022/07/12 08:01:08;;;;;;;6.60;4.30;;;;;;;-146.64;97.16;35641.31;5096969;28;20027;-71
2022/07/12 08:03:33;;;;;;;5.23;4.23;;;;;;;-146.64;96.97;35667.88;5064925;28;20023;-72
2022/07/12 08:06:00;;;;;;;5.80;4.40;;;;;;;-146.64;97.37;35749.66;5073894;28;20032;-70
2022/07/12 08:08:25;;;;;;;4.38;3.97;;;;;;;-146.64;97.00;35651.53;5085885;28;20038;-70
2022/07/12 08:10:51;;;;;;;10.73;3.47;;;;;;;-146.64;99.07;35541.13;5059887;28;20436;-70
2022/07/12 08:13:17;;;;;;;7.53;3.97;;;;;;;-146.64;98.75;35610.63;5081656;28;20438;-70
2022/07/12 08:15:42;;;;;;;8.52;3.72;;;;;;;-146.64;99.67;35688.31;5102530;28;20081;-70
2022/07/12 08:18:07;;;;;;;6.07;3.63;;;;;;;-146.64;99.65;35459.31;5090543;28;20071;-70
2022/07/12 08:20:33;;;;;;;4.07;3.70;;;;;;;-146.64;100.00;35291.69;5085037;28;20438;-70
2022/07/12 08:22:58;;;;;;;4.90;4.33;;;;;;;-146.64;97.06;35524.75;5069478;28;20479;-72
2022/07/12 08:25:24;;;;;;;4.87;4.03;;;;;;;-146.64;96.71;35573.81;5071413;28;20027;-70
2022/07/12 08:27:49;;;;;;;7.87;4.43;;;;;;;-146.64;95.41;35663.78;5085968;28;20030;-70
2022/07/12 08:30:15;;;;;;;6.30;4.27;;;;;;;-146.64;94.12;35557.47;5088193;28;20027;-70
2022/07/12 08:32:44;;;;;;;6.38;3.72;;;;;;;-146.64;94.07;35606.53;5072142;28;20024;-70
2022/07/12 08:35:10;;;;;;;8.48;4.25;;;;;;;-146.64;96.50;35393.91;5079150;28;20168;-69
2022/07/12 08:37:35;;;;;;;11.93;4.03;;;;;;;-146.64;98.18;35369.38;5086772;28;20023;-70
2022/07/12 08:40:00;;;;;;;5.23;4.17;;;;;;;-146.64;94.49;35420.47;5083219;28;20024;-71
2022/07/12 08:42:25;;;;;;;8.57;3.93;;;;;;;-146.64;92.61;35710.81;5106442;28;20115;-72
2022/07/12 08:44:55;;;;;;;6.73;4.30;;;;;;;-146.64;92.82;35539.06;5082151;28;20038;-71
2022/07/12 08:47:20;;;;;;;6.43;4.07;;;;;;;-146.64;90.58;35600.41;5107432;28;20436;-73
2022/07/12 08:50:14;;;;;;;5.20;4.23;;;;;;;-146.64;86.82;35639.25;5103017;28;20023;-72
2022/07/12 08:52:47;;;;;;;5.82;4.22;;;;;;;-146.64;86.42;35641.31;5097241;28;20024;-74
2022/07/12 08:55:20;;;;;;;4.70;4.13;;;;;;;-146.64;86.81;35547.25;5100707;28;20028;-73
2022/07/12 08:57:45;;;;;;;6.20;4.85;;;;;;;-146.64;83.17;35631.06;5099483;28;20118;-72
2022/07/12 09:00:12;;;;;;;5.28;4.40;;;;;;;-146.64;83.41;35547.25;5077652;28;20584;-73
2022/07/12 09:02:46;;;;;;;6.80;4.97;;;;;;;-146.64;81.19;35606.53;5091195;28;20107;-71
2022/07/12 09:05:13;;;;;;;5.18;4.40;;;;;;;-146.64;80.65;35608.59;5103090;28;20024;-74
2022/07/12 09:07:42;;;;;;;6.07;5.47;;;;;;;-146.64;80.08;35520.66;5089267;28;20039;-72
2022/07/12 09:10:09;;;;;;;5.53;4.78;;;;;;;-146.64;79.04;35659.69;5106163;28;20031;-73
2022/07/12 09:12:35;;;;;;;7.60;4.78;;;;;;;-146.64;80.62;35602.44;5102118;28;20402;-71
2022/07/12 09:15:14;;;;;;;7.53;4.22;;;;;;;-146.64;78.80;35377.53;5080432;28;20038;-73
2022/07/12 09:17:40;;;;;;;9.20;4.70;;;;;;;-146.64;76.56;35483.88;5086694;28;20039;-72
2022/07/12 09:20:09;;;;;;;6.32;5.40;;;;;;;-146.64;77.40;35402.09;5081411;28;20036;-71
2022/07/12 09:22:35;;;;;;;10.45;5.00;;;;;;;-146.64;77.49;35402.09;5059405;28;20040;-71
2022/07/12 09:25:17;;;;;;;7.93;5.43;;;;;;;-146.64;76.69;35420.47;5081775;28;20128;-73
2022/07/12 09:27:48;;;;;;;10.85;5.00;;;;;;;-146.64;75.80;35385.72;5086508;28;20524;-71
2022/07/12 09:30:13;;;;;;;12.50;5.60;;;;;;;-146.64;75.53;35312.13;5091156;28;20411;-72
2022/07/12 09:38:17;;;;;;;5.40;4.90;;;;;;;-146.64;72.01;35136.28;5086635;28;20062;-72
2022/07/12 09:40:42;;;;;;;4.60;4.20;;;;;;;-146.64;73.65;34980.94;5104312;28;20530;-72
2022/07/12 09:43:08;;;;;;;5.33;4.40;;;;;;;-146.64;70.07;34948.22;5070717;28;20073;-73
2022/07/12 09:45:34;;;;;;;10.60;4.70;;;;;;;-146.64;73.03;35169.00;5108819;28;20111;-70
2022/07/12 09:48:00;;;;;;;8.48;5.10;;;;;;;-146.64;72.41;35164.91;5110377;28;20071;-71
2022/07/12 09:50:25;;;;;;;5.38;4.88;;;;;;;-146.64;70.93;35353.00;5082460;28;20024;-71
2022/07/12 09:52:53;;;;;;;8.27;4.70;;;;;;;-146.64;68.82;35211.94;5088013;28;20719;-71
2022/07/12 09:55:19;;;;;;;5.43;3.78;;;;;;;-146.64;70.78;35095.41;5074373;28;20027;-72
2022/07/12 09:57:45;;;;;;;4.53;3.95;;;;;;;-146.64;68.56;34995.22;5085129;28;20089;-72
2022/07/12 10:00:11;;;;;;;3.75;3.03;;;;;;;-146.64;70.32;34829.66;5085957;28;20043;-73
2022/07/12 10:02:37;;;;;;;5.97;4.47;;;;;;;-146.64;68.65;34911.41;5077135;28;20592;-71
2022/07/12 10:05:04;;;;;;;6.80;4.90;;;;;;;-146.64;68.38;35115.84;5106837;28;20087;-71
2022/07/12 10:07:31;;;;;;;5.32;4.53;;;;;;;-146.64;69.00;35048.38;5087432;28;20036;-70
2022/07/12 10:09:57;;;;;;;6.57;5.07;;;;;;;-146.64;67.55;34907.31;5078951;28;20392;-71
2022/07/12 10:12:23;;;;;;;5.38;4.63;;;;;;;-146.64;67.04;34964.56;5068307;28;20043;-70
2022/07/12 10:14:53;;;;;;;8.40;4.38;;;;;;;-146.64;67.34;35013.63;5087664;28;20034;-71
2022/07/12 10:17:22;;;;;;;4.18;3.78;;;;;;;-146.64;66.36;34950.25;5088002;28;20024;-70
2022/07/12 10:19:47;;;;;;;5.80;3.85;;;;;;;-146.64;65.82;34886.88;5087274;28;20023;-72
2022/07/12 10:22:20;;;;;;;7.53;3.87;;;;;;;-146.64;66.56;34901.19;5107913;28;20080;-71
2022/07/12 10:24:48;;;;;;;8.57;4.50;;;;;;;-146.64;65.49;34819.44;5102702;28;20053;-71
2022/07/12 10:27:13;;;;;;;4.63;3.97;;;;;;;-146.64;66.84;34825.56;5101073;28;20143;-72
2022/07/12 10:29:46;;;;;;;5.97;3.40;;;;;;;-146.64;66.71;34886.88;5107143;28;20035;-71
2022/07/12 10:32:26;;;;;;;6.15;3.33;;;;;;;-146.64;67.89;34645.66;5094793;28;20109;-73
2022/07/12 10:34:58;;;;;;;3.53;3.03;;;;;;;-146.64;64.99;34424.91;5108112;28;20374;-72
2022/07/12 10:37:23;;;;;;;4.82;3.13;;;;;;;-146.64;62.14;34813.28;5104820;28;20024;-71
2022/07/12 10:40:10;;;;;;;5.20;3.87;;;;;;;-146.64;62.54;34574.13;5107907;28;20042;-71
2022/07/12 10:42:36;;;;;;;3.90;3.35;;;;;;;-146.64;61.02;34629.31;5107701;28;20023;-71
2022/07/12 10:45:13;;;;;;;7.95;3.22;;;;;;;-146.64;60.88;34463.75;5070268;28;20032;-72
2022/07/12 10:48:02;;;;;;;5.15;2.85;;;;;;;-146.64;59.64;34876.66;5085683;28;20079;-71
2022/07/12 10:50:45;;;;;;;6.93;3.10;;;;;;;-146.64;60.23;34621.13;5085913;28;20610;-72
2022/07/12 10:53:33;;;;;;;8.63;3.28;;;;;;;-146.64;59.92;34506.66;5099624;28;20033;-72
2022/07/12 10:56:04;;;;;;;5.25;3.97;;;;;;;-146.64;60.47;34848.03;5075971;28;20024;-71
2022/07/12 10:58:43;;;;;;;4.82;3.03;;;;;;;-146.64;59.98;34888.94;5101265;28;20099;-72
2022/07/12 11:01:11;;;;;;;4.47;3.35;;;;;;;-146.64;59.12;34592.53;5088234;28;20475;-74
2022/07/12 11:03:37;;;;;;;5.57;3.05;;;;;;;-146.64;59.96;34825.56;5088748;28;20015;-71
2022/07/12 11:06:03;;;;;;;4.78;3.38;;;;;;;-146.64;58.98;34608.88;5109642;28;20028;-72
2022/07/12 11:08:29;;;;;;;6.18;3.78;;;;;;;-146.64;58.21;34445.34;5088308;28;20027;-71
2022/07/12 11:10:55;;;;;;;;;;;;;;;-146.64;57.34;34165.31;5081457;28;20019;-71
2022/07/12 11:13:24;;;;;;;5.53;2.90;;;;;;;-146.64;57.63;34134.66;5082416;28;19919;-71
2022/07/12 11:16:02;;;;;;;4.70;3.85;;;;;;;-146.64;56.94;34486.22;5092334;28;20032;-71